createdAt,value
2023-04-29T00:02:15.615Z,101541.69
2023-04-29T00:04:42.366Z,101543.44
2023-04-29T00:07:09.309Z,101545.94
2023-04-29T00:09:37.493Z,101551.53
2023-04-29T00:12:03.967Z,101551.53
2023-04-29T00:14:30.433Z,101553.25
2023-04-29T00:16:57.251Z,101553.25
2023-04-29T00:19:23.983Z,101558.72
2023-04-29T00:21:50.661Z,101552.75
2023-04-29T00:24:17.172Z,101558.13
2023-04-29T00:26:43.709Z,101555.44
2023-04-29T00:29:10.470Z,101567.09
2023-04-29T00:31:37.458Z,101569.69
2023-04-29T00:34:04.142Z,101575.88
2023-04-29T00:36:31.835Z,101572.47
2023-04-29T00:38:58.679Z,101571.41
2023-04-29T00:41:26.004Z,101576.91
2023-04-29T00:43:52.975Z,101577.69
2023-04-29T00:46:19.768Z,101577.78
2023-04-29T00:48:46.310Z,101589.44
2023-04-29T00:51:13.734Z,101575.19
2023-04-29T00:53:40.852Z,101577.69
2023-04-29T00:56:08.645Z,101583.94
2023-04-29T00:58:36.359Z,101590.13
2023-04-29T01:01:03.796Z,101583.94
2023-04-29T01:03:31.955Z,101588.56
2023-04-29T01:06:30.248Z,101586.84
2023-04-29T01:09:12.186Z,101593.94
2023-04-29T01:12:13.089Z,101593.25
2023-04-29T01:14:46.689Z,101600.53
2023-04-29T01:17:18.468Z,101607.84
2023-04-29T01:19:50.396Z,101609.78
2023-04-29T01:22:21.799Z,101615.91
2023-04-29T01:24:49.673Z,101618.00
2023-04-29T01:27:29.823Z,101618.97
2023-04-29T01:30:27.213Z,101622.78
2023-04-29T01:33:16.941Z,101613.94
2023-04-29T01:36:12.735Z,101616.66
2023-04-29T01:38:49.827Z,101622.88
2023-04-29T01:41:34.947Z,101622.78
2023-04-29T01:44:16.746Z,101629.06
2023-04-29T01:46:49.070Z,101631.75
2023-04-29T01:49:15.869Z,101634.34
2023-04-29T01:51:42.458Z,101629.84
2023-04-29T01:54:08.964Z,101639.81
2023-04-29T01:56:35.645Z,101637.03
2023-04-29T01:59:20.898Z,101647.63
2023-04-29T02:02:07.408Z,101642.19
2023-04-29T02:04:36.401Z,101644.94
2023-04-29T02:07:03.673Z,101636.94
2023-04-29T02:09:30.973Z,101642.25
2023-04-29T02:12:05.698Z,101646.78
2023-04-29T02:14:35.605Z,101649.47
2023-04-29T02:17:04.089Z,101657.38
2023-04-29T02:19:31.209Z,101652.78
2023-04-29T02:21:57.795Z,101664.59
2023-04-29T02:24:25.692Z,101663.66
2023-04-29T02:26:52.161Z,101667.28
2023-04-29T02:29:18.968Z,101680.66
2023-04-29T02:31:45.481Z,101677.97
2023-04-29T02:34:11.954Z,101675.28
2023-04-29T02:36:38.385Z,101677.03
2023-04-29T02:39:05.282Z,101680.66
2023-04-29T02:41:31.803Z,101687.72
2023-04-29T02:43:58.211Z,101687.72
2023-04-29T02:46:24.917Z,101687.72
2023-04-29T02:48:52.852Z,101694.03
2023-04-29T02:51:19.826Z,101696.81
2023-04-29T02:53:46.272Z,101701.19
2023-04-29T02:56:12.689Z,101694.13
2023-04-29T02:58:39.153Z,101705.69
2023-04-29T03:01:05.671Z,101699.50
2023-04-29T03:03:32.282Z,101712.03
2023-04-29T03:05:58.965Z,101712.13
2023-04-29T03:08:25.486Z,101708.38
2023-04-29T03:10:52.150Z,101710.19
2023-04-29T03:13:19.140Z,101717.53
2023-04-29T03:15:45.683Z,101719.44
2023-04-29T03:18:12.218Z,101725.75
2023-04-29T03:20:38.714Z,101722.28
2023-04-29T03:23:05.349Z,101720.53
2023-04-29T03:25:31.772Z,101726.81
2023-04-29T03:27:58.241Z,101734.97
2023-04-29T03:30:24.863Z,101730.50
2023-04-29T03:32:55.050Z,101734.88
2023-04-29T03:35:21.774Z,101730.50
2023-04-29T03:38:13.920Z,101726.09
2023-04-29T03:40:40.715Z,101735.16
2023-04-29T03:43:09.336Z,101744.25
2023-04-29T03:45:35.936Z,101742.53
2023-04-29T03:48:03.470Z,101743.53
2023-04-29T03:50:30.235Z,101748.94
2023-04-29T03:52:57.757Z,101749.91
2023-04-29T03:55:24.243Z,101753.38
2023-04-29T03:57:51.160Z,101750.59
2023-04-29T04:00:18.863Z,101753.38
2023-04-29T04:02:49.924Z,101765.97
2023-04-29T04:05:19.369Z,101756.16
2023-04-29T04:07:49.530Z,101767.78
2023-04-29T04:10:34.101Z,101768.66
2023-04-29T04:13:03.742Z,101762.56
2023-04-29T04:15:30.287Z,101769.69
2023-04-29T04:17:57.928Z,101773.25
2023-04-29T04:20:24.458Z,101776.03
2023-04-29T04:22:50.989Z,101776.13
2023-04-29T04:25:30.252Z,101769.84
2023-04-29T04:28:06.217Z,101783.41
2023-04-29T04:30:50.900Z,101776.81
2023-04-29T04:33:17.546Z,101771.59
2023-04-29T04:35:45.822Z,101780.44
2023-04-29T04:38:12.559Z,101780.41
2023-04-29T04:40:42.468Z,101790.19
2023-04-29T04:43:26.903Z,101795.50
2023-04-29T04:45:54.267Z,101798.19
2023-04-29T04:48:20.765Z,101809.75
2023-04-29T04:51:10.042Z,101806.09
2023-04-29T04:53:36.969Z,101818.63
2023-04-29T04:56:08.486Z,101814.09
2023-04-29T04:58:35.890Z,101816.56
2023-04-29T05:01:03.469Z,101826.38
2023-04-29T05:03:30.203Z,101826.19
2023-04-29T05:05:58.330Z,101828.72
2023-04-29T05:08:25.752Z,101833.81
2023-04-29T05:10:55.556Z,101835.34
2023-04-29T05:13:22.312Z,101830.69
2023-04-29T05:15:49.080Z,101839.28
2023-04-29T05:18:20.747Z,101838.88
2023-04-29T05:20:49.725Z,101842.91
2023-04-29T05:23:16.367Z,101852.44
2023-04-29T05:25:45.238Z,101857.44
2023-04-29T05:28:11.784Z,101847.44
2023-04-29T05:30:40.985Z,101849.47
2023-04-29T05:33:08.145Z,101849.00
2023-04-29T05:35:34.745Z,101861.63
2023-04-29T05:38:01.300Z,101858.91
2023-04-29T05:40:35.538Z,101860.59
2023-04-29T05:43:21.768Z,101862.44
2023-04-29T05:45:48.515Z,101861.03
2023-04-29T05:48:14.956Z,101850.72
2023-04-29T05:50:41.552Z,101866.19
2023-04-29T05:53:08.354Z,101863.94
2023-04-29T05:55:35.509Z,101867.25
2023-04-29T05:58:02.063Z,101872.88
2023-04-29T06:00:28.538Z,101877.34
2023-04-29T06:03:01.580Z,101876.50
2023-04-29T06:05:28.773Z,101883.56
2023-04-29T06:08:10.706Z,101887.13
2023-04-29T06:10:45.891Z,101889.38
2023-04-29T06:13:12.550Z,101894.47
2023-04-29T06:15:39.272Z,101898.25
2023-04-29T06:18:05.806Z,101900.94
2023-04-29T06:20:32.403Z,101906.91
2023-04-29T06:22:58.878Z,101909.09
2023-04-29T06:25:25.370Z,101914.56
2023-04-29T06:27:51.852Z,101917.84
2023-04-29T06:30:22.076Z,101910.03
2023-04-29T06:32:48.592Z,101914.72
2023-04-29T06:35:15.556Z,101923.06
2023-04-29T06:38:08.089Z,101917.53
2023-04-29T06:40:40.220Z,101921.06
2023-04-29T06:43:12.377Z,101932.00
2023-04-29T06:46:10.024Z,101930.88
2023-04-29T06:48:45.954Z,101941.84
2023-04-29T06:51:12.754Z,101953.81
2023-04-29T06:53:39.249Z,101958.44
2023-04-29T06:56:06.799Z,101949.13
2023-04-29T06:58:33.238Z,101952.88
2023-04-29T07:01:00.456Z,101957.69
2023-04-29T07:03:27.442Z,101955.84
2023-04-29T07:05:53.970Z,101963.75
2023-04-29T07:08:20.421Z,101954.88
2023-04-29T07:10:55.093Z,101970.19
2023-04-29T07:13:23.581Z,101974.91
2023-04-29T07:15:51.037Z,101974.66
2023-04-29T07:18:17.950Z,101980.41
2023-04-29T07:20:44.547Z,101980.22
2023-04-29T07:23:11.243Z,101972.22
2023-04-29T07:25:37.886Z,101970.03
2023-04-29T07:28:05.474Z,101980.03
2023-04-29T07:30:32.062Z,101988.56
2023-04-29T07:32:58.592Z,102004.13
2023-04-29T07:35:25.028Z,101999.22
2023-04-29T07:37:51.672Z,102004.88
2023-04-29T07:40:18.540Z,102006.06
2023-04-29T07:42:45.353Z,102009.13
2023-04-29T07:45:13.811Z,102004.75
2023-04-29T07:47:40.426Z,102006.00
2023-04-29T07:50:07.324Z,102001.50
2023-04-29T07:52:34.031Z,101991.63
2023-04-29T07:55:00.763Z,101999.81
2023-04-29T07:57:27.200Z,102003.38
2023-04-29T07:59:54.606Z,101998.09
2023-04-29T08:02:21.767Z,102004.66
2023-04-29T08:04:51.359Z,102003.91
2023-04-29T08:07:18.449Z,101999.47
2023-04-29T08:09:45.058Z,102007.13
2023-04-29T08:12:11.532Z,102008.16
2023-04-29T08:14:40.289Z,102005.28
2023-04-29T08:17:07.441Z,102017.13
2023-04-29T08:19:33.997Z,102019.50
2023-04-29T08:22:01.177Z,102023.63
2023-04-29T08:24:29.012Z,102032.97
2023-04-29T08:26:55.459Z,102040.06
2023-04-29T08:29:21.988Z,102031.00
2023-04-29T08:31:48.544Z,102033.53
2023-04-29T08:34:15.045Z,102041.41
2023-04-29T08:36:41.511Z,102041.84
2023-04-29T08:39:08.555Z,102031.72
2023-04-29T08:41:37.028Z,102028.84
2023-04-29T08:44:03.533Z,102030.00
2023-04-29T08:46:30.952Z,102033.75
2023-04-29T08:48:58.804Z,102034.94
2023-04-29T08:51:25.689Z,102037.69
2023-04-29T08:53:52.201Z,102039.63
2023-04-29T08:56:20.513Z,102047.69
2023-04-29T08:58:51.836Z,102054.13
2023-04-29T09:01:18.843Z,102053.47
2023-04-29T09:04:05.807Z,102060.22
2023-04-29T09:06:33.402Z,102058.72
2023-04-29T09:09:02.006Z,102059.66
2023-04-29T09:11:29.889Z,102062.34
2023-04-29T09:14:01.376Z,102059.69
2023-04-29T09:16:28.905Z,102066.88
2023-04-29T09:18:56.686Z,102073.34
2023-04-29T09:21:25.953Z,102069.16
2023-04-29T09:24:03.015Z,102070.25
2023-04-29T09:26:43.891Z,102065.59
2023-04-29T09:29:16.127Z,102067.22
2023-04-29T09:31:42.882Z,102060.13
2023-04-29T09:34:14.320Z,102074.91
2023-04-29T09:36:47.519Z,102081.44
2023-04-29T09:39:19.174Z,102084.97
2023-04-29T09:41:54.467Z,102075.31
2023-04-29T09:44:26.738Z,102076.63
2023-04-29T09:47:04.611Z,102088.97
2023-04-29T09:49:37.418Z,102084.16
2023-04-29T09:52:06.035Z,102075.97
2023-04-29T09:54:34.279Z,102084.66
2023-04-29T09:57:02.580Z,102100.56
2023-04-29T09:59:29.133Z,102097.47
2023-04-29T10:01:58.059Z,102088.41
2023-04-29T10:04:26.980Z,102080.00
2023-04-29T10:06:55.356Z,102077.22
2023-04-29T10:09:23.741Z,102074.50
2023-04-29T10:11:54.004Z,102069.81
2023-04-29T10:14:22.412Z,102083.91
2023-04-29T10:17:02.262Z,102088.25
2023-04-29T10:19:35.640Z,102093.56
2023-04-29T10:22:08.888Z,102087.31
2023-04-29T10:24:39.959Z,102088.06
2023-04-29T10:27:14.373Z,102083.00
2023-04-29T10:29:42.011Z,102091.97
2023-04-29T10:32:12.948Z,102090.31
2023-04-29T10:34:40.582Z,102093.97
2023-04-29T10:37:09.998Z,102092.59
2023-04-29T10:39:44.095Z,102085.72
2023-04-29T10:42:39.256Z,102106.88
2023-04-29T10:45:24.746Z,102104.50
2023-04-29T10:48:09.076Z,102101.13
2023-04-29T10:50:48.861Z,102098.34
2023-04-29T10:53:15.924Z,102093.06
2023-04-29T10:55:46.963Z,102093.88
2023-04-29T10:58:46.394Z,102087.66
2023-04-29T11:01:17.583Z,102095.44
2023-04-29T11:03:49.490Z,102091.50
2023-04-29T11:06:16.801Z,102096.00
2023-04-29T11:08:43.405Z,102095.72
2023-04-29T11:11:10.096Z,102093.50
2023-04-29T11:13:40.460Z,102097.63
2023-04-29T11:16:09.658Z,102100.19
2023-04-29T11:18:56.821Z,102092.59
2023-04-29T11:21:23.488Z,102098.53
2023-04-29T11:23:52.357Z,102100.78
2023-04-29T11:26:23.859Z,102109.47
2023-04-29T11:28:52.036Z,102099.94
2023-04-29T11:31:18.485Z,102097.03
2023-04-29T11:33:46.666Z,102101.50
2023-04-29T11:36:14.243Z,102108.72
2023-04-29T11:38:41.744Z,102096.00
2023-04-29T11:41:08.891Z,102109.47
2023-04-29T11:43:35.302Z,102103.00
2023-04-29T11:46:01.906Z,102096.31
2023-04-29T11:48:30.213Z,102089.41
2023-04-29T11:50:57.845Z,102092.91
2023-04-29T11:53:27.776Z,102088.97
2023-04-29T11:55:55.132Z,102093.34
2023-04-29T11:58:23.265Z,102091.22
2023-04-29T12:00:52.023Z,102096.53
2023-04-29T12:03:20.893Z,102099.66
2023-04-29T12:05:54.584Z,102099.44
2023-04-29T12:08:21.900Z,102106.88
2023-04-29T12:10:48.963Z,102100.75
2023-04-29T12:13:19.556Z,102104.78
2023-04-29T12:15:51.151Z,102106.22
2023-04-29T12:18:19.312Z,102100.75
2023-04-29T12:20:46.764Z,102102.56
2023-04-29T12:23:14.644Z,102098.19
2023-04-29T12:25:42.509Z,102100.56
2023-04-29T12:28:13.168Z,102095.81
2023-04-29T12:30:39.700Z,102098.06
2023-04-29T12:33:09.643Z,102102.09
2023-04-29T12:35:37.566Z,102094.69
2023-04-29T12:38:04.168Z,102096.22
2023-04-29T12:40:32.716Z,102091.28
2023-04-29T12:43:07.015Z,102099.47
2023-04-29T12:45:34.041Z,102092.28
2023-04-29T12:48:02.411Z,102098.59
2023-04-29T12:50:37.823Z,102105.06
2023-04-29T12:53:06.410Z,102101.38
2023-04-29T12:55:34.922Z,102101.22
2023-04-29T12:58:01.910Z,102112.28
2023-04-29T13:00:28.308Z,102110.56
2023-04-29T13:02:55.389Z,102109.69
2023-04-29T13:05:22.787Z,102111.63
2023-04-29T13:07:49.900Z,102100.63
2023-04-29T13:10:16.442Z,102102.09
2023-04-29T13:12:42.989Z,102104.53
2023-04-29T13:15:10.346Z,102115.50
2023-04-29T13:17:37.617Z,102106.84
2023-04-29T13:20:05.648Z,102110.66
2023-04-29T13:22:32.748Z,102111.22
2023-04-29T13:24:59.450Z,102113.22
2023-04-29T13:27:25.981Z,102111.91
2023-04-29T13:29:52.535Z,102113.06
2023-04-29T13:32:21.375Z,102111.47
2023-04-29T13:34:47.998Z,102109.88
2023-04-29T13:37:15.676Z,102114.63
2023-04-29T13:39:45.718Z,102118.19
2023-04-29T13:42:15.522Z,102122.72
2023-04-29T13:44:52.271Z,102116.03
2023-04-29T13:47:24.669Z,102110.41
2023-04-29T13:55:25.812Z,102125.06
2023-04-29T14:00:30.945Z,102125.03
2023-04-29T14:05:25.384Z,102142.41
2023-04-29T14:07:52.179Z,102144.38
2023-04-29T14:10:18.677Z,102144.75
2023-04-29T14:12:45.549Z,102148.22
2023-04-29T14:15:12.158Z,102150.47
2023-04-29T14:17:38.676Z,102147.97
2023-04-29T14:20:05.940Z,102157.31
2023-04-29T14:22:32.545Z,102152.38
2023-04-29T14:24:58.978Z,102153.94
2023-04-29T14:27:25.635Z,102153.06
2023-04-29T14:29:52.105Z,102147.41
2023-04-29T14:32:18.558Z,102156.94
2023-04-29T14:34:45.006Z,102153.91
2023-04-29T14:37:11.867Z,102156.22
2023-04-29T14:39:38.286Z,102158.53
2023-04-29T14:42:05.352Z,102160.81
2023-04-29T14:44:31.858Z,102162.91
2023-04-29T14:46:58.358Z,102159.28
2023-04-29T14:49:24.897Z,102163.22
2023-04-29T14:51:51.607Z,102164.41
2023-04-29T14:54:18.037Z,102168.69
2023-04-29T14:56:44.427Z,102160.34
2023-04-29T14:59:11.028Z,102159.97
2023-04-29T15:01:39.581Z,102166.22
2023-04-29T15:04:06.194Z,102167.94
2023-04-29T15:06:32.866Z,102163.97
2023-04-29T15:08:59.359Z,102159.38
2023-04-29T15:11:26.149Z,102165.31
2023-04-29T15:13:52.574Z,102163.56
2023-04-29T15:16:19.410Z,102158.53
2023-04-29T15:18:46.504Z,102171.19
2023-04-29T15:21:13.110Z,102173.38
2023-04-29T15:23:39.665Z,102171.41
2023-04-29T15:26:07.141Z,102177.09
2023-04-29T15:28:33.729Z,102183.69
2023-04-29T15:31:01.790Z,102175.25
2023-04-29T15:33:28.290Z,102182.63
2023-04-29T15:35:56.688Z,102185.84
2023-04-29T15:38:23.280Z,102184.88
2023-04-29T15:40:49.887Z,102187.75
2023-04-29T15:43:16.634Z,102184.88
2023-04-29T15:45:43.097Z,102185.22
2023-04-29T15:48:09.991Z,102187.25
2023-04-29T15:50:36.426Z,102177.59
2023-04-29T15:53:02.909Z,102182.41
2023-04-29T15:55:29.337Z,102179.44
2023-04-29T15:57:55.799Z,102186.75
2023-04-29T16:00:22.340Z,102191.75
2023-04-29T16:02:48.866Z,102191.75
2023-04-29T16:05:15.450Z,102192.72
2023-04-29T16:07:42.022Z,102185.66
2023-04-29T16:10:09.987Z,102192.38
2023-04-29T16:12:36.615Z,102199.94
2023-04-29T16:15:04.275Z,102202.16
2023-04-29T16:17:34.508Z,102199.56
2023-04-29T16:20:01.485Z,102202.44
2023-04-29T16:22:28.107Z,102200.31
2023-04-29T16:24:54.590Z,102205.41
2023-04-29T16:27:21.261Z,102201.41
2023-04-29T16:29:47.786Z,102202.94
2023-04-29T16:32:14.455Z,102213.59
2023-04-29T16:34:41.746Z,102209.97
2023-04-29T16:37:12.426Z,102207.88
2023-04-29T16:39:39.773Z,102215.91
2023-04-29T16:42:07.282Z,102219.28
2023-04-29T16:44:33.747Z,102224.22
2023-04-29T16:47:00.234Z,102216.38
2023-04-29T16:49:26.805Z,102221.31
2023-04-29T16:51:54.510Z,102225.00
2023-04-29T16:54:23.975Z,102228.97
2023-04-29T16:56:51.309Z,102228.09
2023-04-29T16:59:18.082Z,102231.50
2023-04-29T17:01:44.943Z,102227.13
2023-04-29T17:04:11.699Z,102236.34
2023-04-29T17:06:40.457Z,102229.44
2023-04-29T17:09:07.410Z,102241.44
2023-04-29T17:11:33.899Z,102232.75
2023-04-29T17:14:00.306Z,102232.22
2023-04-29T17:16:27.253Z,102240.16
2023-04-29T17:18:54.334Z,102238.84
2023-04-29T17:21:24.611Z,102231.56
2023-04-29T17:23:53.020Z,102239.09
2023-04-29T17:26:20.323Z,102246.81
2023-04-29T17:28:46.930Z,102239.06
2023-04-29T17:31:15.425Z,102248.28
2023-04-29T17:33:50.428Z,102242.16
2023-04-29T17:36:17.359Z,102248.50
2023-04-29T17:38:43.826Z,102243.28
2023-04-29T17:41:10.328Z,102248.56
2023-04-29T17:43:36.919Z,102248.31
2023-04-29T17:46:03.779Z,102251.44
2023-04-29T17:48:32.207Z,102243.44
2023-04-29T17:50:58.877Z,102247.72
2023-04-29T17:53:26.147Z,102252.69
2023-04-29T17:55:52.538Z,102261.00
2023-04-29T17:58:19.016Z,102251.00
2023-04-29T18:00:46.261Z,102256.75
2023-04-29T18:03:12.834Z,102261.22
2023-04-29T18:05:39.513Z,102263.94
2023-04-29T18:08:06.278Z,102265.09
2023-04-29T18:10:32.710Z,102265.56
2023-04-29T18:12:59.747Z,102264.97
2023-04-29T18:15:26.261Z,102271.47
2023-04-29T18:17:54.486Z,102269.09
2023-04-29T18:20:22.422Z,102271.44
2023-04-29T18:22:50.565Z,102277.16
2023-04-29T18:25:17.402Z,102286.50
2023-04-29T18:27:44.439Z,102279.16
2023-04-29T18:30:11.224Z,102277.00
2023-04-29T18:32:38.426Z,102290.34
2023-04-29T18:35:05.761Z,102291.88
2023-04-29T18:37:32.230Z,102293.09
2023-04-29T18:39:58.731Z,102290.94
2023-04-29T18:42:25.820Z,102294.09
2023-04-29T18:44:52.417Z,102293.50
2023-04-29T18:47:21.808Z,102290.00
2023-04-29T18:49:48.383Z,102290.28
2023-04-29T18:52:14.897Z,102290.75
2023-04-29T18:54:41.286Z,102301.28
2023-04-29T18:57:07.824Z,102297.38
2023-04-29T18:59:37.542Z,102301.38
2023-04-29T19:02:06.002Z,102300.09
2023-04-29T19:04:33.206Z,102301.53
2023-04-29T19:07:00.249Z,102312.69
2023-04-29T19:09:28.207Z,102306.75
2023-04-29T19:11:54.766Z,102313.44
2023-04-29T19:14:21.393Z,102312.06
2023-04-29T19:16:47.938Z,102309.03
2023-04-29T19:19:14.439Z,102317.66
2023-04-29T19:21:40.953Z,102319.41
2023-04-29T19:24:07.434Z,102323.06
2023-04-29T19:26:36.028Z,102328.78
2023-04-29T19:29:03.849Z,102330.94
2023-04-29T19:31:30.536Z,102329.44
2023-04-29T19:33:57.142Z,102335.09
2023-04-29T19:36:23.561Z,102331.75
2023-04-29T19:38:50.177Z,102332.00
2023-04-29T19:41:17.643Z,102337.59
2023-04-29T19:43:44.057Z,102343.44
2023-04-29T19:46:14.187Z,102340.81
2023-04-29T19:48:40.970Z,102349.25
2023-04-29T19:51:08.414Z,102351.31
2023-04-29T19:53:38.549Z,102340.56
2023-04-29T19:56:05.412Z,102348.66
2023-04-29T19:58:35.235Z,102356.13
2023-04-29T20:01:01.793Z,102353.44
2023-04-29T20:03:28.409Z,102350.59
2023-04-29T20:05:55.121Z,102353.38
2023-04-29T20:08:21.773Z,102355.28
2023-04-29T20:10:48.430Z,102357.00
2023-04-29T20:13:15.586Z,102358.81
2023-04-29T20:15:42.245Z,102357.34
2023-04-29T20:18:08.705Z,102366.53
2023-04-29T20:20:35.366Z,102368.50
2023-04-29T20:23:01.828Z,102365.06
2023-04-29T20:25:28.435Z,102367.28
2023-04-29T20:27:54.892Z,102371.81
2023-04-29T20:30:21.635Z,102369.13
2023-04-29T20:32:48.348Z,102368.47
2023-04-29T20:35:15.644Z,102371.47
2023-04-29T20:37:42.076Z,102368.16
2023-04-29T20:40:09.742Z,102367.50
2023-04-29T20:42:36.178Z,102371.94
2023-04-29T20:45:02.774Z,102370.19
2023-04-29T20:47:30.074Z,102377.56
2023-04-29T20:49:57.905Z,102380.41
2023-04-29T20:52:24.361Z,102378.97
2023-04-29T20:54:52.505Z,102378.59
2023-04-29T20:57:18.966Z,102381.44
2023-04-29T20:59:45.825Z,102387.84
2023-04-29T21:02:12.401Z,102387.91
2023-04-29T21:04:38.851Z,102395.28
2023-04-29T21:07:06.913Z,102391.69
2023-04-29T21:09:35.656Z,102388.28
2023-04-29T21:12:04.407Z,102395.50
2023-04-29T21:14:31.081Z,102387.56
2023-04-29T21:16:57.725Z,102390.38
2023-04-29T21:19:24.396Z,102396.78
2023-04-29T21:21:50.882Z,102395.25
2023-04-29T21:24:17.362Z,102398.16
2023-04-29T21:26:43.966Z,102397.44
2023-04-29T21:29:10.459Z,102403.84
2023-04-29T21:31:37.003Z,102397.44
2023-04-29T21:34:03.571Z,102404.69
2023-04-29T21:36:31.983Z,102412.94
2023-04-29T21:38:58.447Z,102409.41
2023-04-29T21:41:31.103Z,102420.19
2023-04-29T21:43:59.124Z,102414.13
2023-04-29T21:46:28.211Z,102415.25
2023-04-29T21:48:58.040Z,102421.91
2023-04-29T21:51:24.782Z,102422.22
2023-04-29T21:53:51.461Z,102422.66
2023-04-29T21:56:18.177Z,102424.72
2023-04-29T21:58:45.341Z,102420.25
2023-04-29T22:01:29.457Z,102427.53
2023-04-29T22:03:57.048Z,102426.75
2023-04-29T22:06:24.076Z,102429.53
2023-04-29T22:08:50.709Z,102433.19
2023-04-29T22:11:18.318Z,102428.16
2023-04-29T22:13:45.495Z,102425.63
2023-04-29T22:16:12.314Z,102422.94
2023-04-29T22:18:38.998Z,102433.69
2023-04-29T22:21:05.708Z,102432.94
2023-04-29T22:23:32.177Z,102431.16
2023-04-29T22:25:58.813Z,102431.06
2023-04-29T22:28:25.343Z,102432.94
2023-04-29T22:30:52.042Z,102427.47
2023-04-29T22:33:18.428Z,102430.19
2023-04-29T22:35:45.145Z,102421.34
2023-04-29T22:38:11.584Z,102428.53
2023-04-29T22:40:38.265Z,102432.41
2023-04-29T22:43:04.789Z,102430.72
2023-04-29T22:45:32.015Z,102438.13
2023-04-29T22:47:58.502Z,102442.69
2023-04-29T22:50:24.985Z,102447.31
2023-04-29T22:52:51.517Z,102442.88
2023-04-29T22:55:18.125Z,102436.69
2023-04-29T22:57:44.514Z,102442.34
2023-04-29T23:00:11.811Z,102429.03
2023-04-29T23:02:38.208Z,102436.22
2023-04-29T23:05:07.505Z,102443.56
2023-04-29T23:07:34.029Z,102438.22
2023-04-29T23:10:00.472Z,102441.06
2023-04-29T23:12:26.921Z,102429.53
2023-04-29T23:14:53.547Z,102438.69
2023-04-29T23:17:20.051Z,102440.69
2023-04-29T23:19:46.615Z,102437.31
2023-04-29T23:22:13.131Z,102441.84
2023-04-29T23:24:40.239Z,102437.38
2023-04-29T23:27:06.702Z,102438.22
2023-04-29T23:29:36.220Z,102446.28
2023-04-29T23:32:03.250Z,102448.91
2023-04-29T23:34:29.719Z,102448.22
2023-04-29T23:36:56.282Z,102454.53
2023-04-29T23:39:22.781Z,102456.53
2023-04-29T23:41:49.505Z,102462.03
2023-04-29T23:44:15.957Z,102464.09
2023-04-29T23:46:42.403Z,102466.06
2023-04-29T23:49:10.375Z,102460.00
2023-04-29T23:51:36.852Z,102466.47
2023-04-29T23:54:03.491Z,102456.88
2023-04-29T23:56:31.404Z,102466.97
2023-04-29T23:58:57.903Z,102466.38
